createdAt,value
2018-12-16T00:00:14.535Z,99.44
2018-12-16T00:02:42.248Z,98.84
2018-12-16T00:05:09.883Z,98.07
2018-12-16T00:07:37.612Z,98.53
2018-12-16T00:10:06.108Z,98.39
2018-12-16T00:12:33.855Z,96.87
2018-12-16T00:15:01.563Z,96.46
2018-12-16T00:17:29.260Z,96.38
2018-12-16T00:19:56.929Z,96.84
2018-12-16T00:22:29.831Z,96.88
2018-12-16T00:24:54.702Z,96.33
2018-12-16T00:27:22.593Z,96.12
2018-12-16T00:29:50.526Z,96.58
2018-12-16T00:32:18.241Z,96.84
2018-12-16T00:34:46.382Z,96.35
2018-12-16T00:37:14.119Z,95.44
2018-12-16T00:39:41.983Z,95.59
2018-12-16T00:42:09.636Z,96.69
2018-12-16T00:44:37.221Z,96.84
2018-12-16T00:47:04.974Z,96.13
2018-12-16T00:49:33.138Z,95.89
2018-12-16T00:52:01.439Z,96.25
2018-12-16T00:54:29.038Z,96.19
2018-12-16T00:56:56.736Z,96.88
2018-12-16T00:59:24.393Z,97.81
2018-12-16T01:01:52.212Z,98.00
2018-12-16T01:04:19.907Z,96.51
2018-12-16T01:06:47.725Z,95.32
2018-12-16T01:09:15.636Z,96.94
2018-12-16T01:11:43.346Z,96.47
2018-12-16T01:14:11.069Z,95.42
2018-12-16T01:16:38.657Z,95.97
2018-12-16T01:19:06.304Z,96.73
2018-12-16T01:21:33.919Z,96.80
2018-12-16T01:24:01.582Z,97.02
2018-12-16T01:26:29.257Z,98.15
2018-12-16T01:28:56.875Z,96.88
2018-12-16T01:31:24.542Z,97.39
2018-12-16T01:33:52.240Z,98.54
2018-12-16T01:36:19.869Z,97.58
2018-12-16T01:38:47.561Z,96.60
2018-12-16T01:41:15.313Z,96.41
2018-12-16T01:43:42.970Z,96.18
2018-12-16T01:46:10.630Z,97.26
2018-12-16T01:48:38.246Z,96.91
2018-12-16T01:51:05.902Z,97.04
2018-12-16T01:53:33.545Z,97.10
2018-12-16T01:56:01.184Z,96.10
2018-12-16T01:58:28.850Z,96.56
2018-12-16T02:00:56.642Z,96.49
2018-12-16T02:03:24.277Z,95.92
2018-12-16T02:05:52.020Z,95.90
2018-12-16T02:08:19.677Z,96.21
2018-12-16T02:10:47.455Z,95.98
2018-12-16T02:13:15.218Z,95.24
2018-12-16T02:15:42.820Z,92.95
2018-12-16T02:18:10.505Z,93.22
2018-12-16T02:20:38.689Z,94.37
2018-12-16T02:23:07.288Z,95.50
2018-12-16T02:25:38.029Z,96.68
2018-12-16T02:28:06.526Z,97.29
2018-12-16T02:30:34.190Z,97.73
2018-12-16T02:33:01.887Z,97.48
2018-12-16T02:35:30.431Z,97.50
2018-12-16T02:37:58.066Z,97.59
2018-12-16T02:40:25.751Z,96.16
2018-12-16T02:42:53.554Z,96.04
2018-12-16T02:45:21.266Z,96.65
2018-12-16T02:47:48.977Z,96.12
2018-12-16T02:50:16.710Z,96.50
2018-12-16T02:52:44.507Z,96.65
2018-12-16T02:55:12.452Z,96.59
2018-12-16T02:57:40.166Z,96.48
2018-12-16T03:00:08.431Z,97.23
2018-12-16T03:02:36.105Z,97.49
2018-12-16T03:05:04.052Z,97.21
2018-12-16T03:07:31.713Z,96.62
2018-12-16T03:09:59.378Z,96.87
2018-12-16T03:12:27.124Z,96.69
2018-12-16T03:14:54.735Z,96.03
2018-12-16T03:17:22.400Z,96.75
2018-12-16T03:19:50.030Z,95.91
2018-12-16T03:22:17.940Z,95.52
2018-12-16T03:24:45.607Z,95.12
2018-12-16T03:27:13.286Z,93.95
2018-12-16T03:29:40.974Z,95.43
2018-12-16T03:32:08.761Z,96.30
2018-12-16T03:34:36.413Z,96.76
2018-12-16T03:37:04.107Z,96.51
2018-12-16T03:39:31.697Z,96.13
2018-12-16T03:42:00.212Z,96.13
2018-12-16T03:44:27.874Z,96.82
2018-12-16T03:46:55.634Z,100.00
2018-12-16T03:49:23.335Z,98.75
2018-12-16T03:51:51.080Z,97.98
2018-12-16T03:54:18.856Z,96.94
2018-12-16T03:56:47.066Z,96.78
2018-12-16T03:59:16.943Z,95.93
2018-12-16T04:01:47.334Z,95.64
2018-12-16T04:04:15.014Z,95.32
2018-12-16T04:06:43.356Z,94.96
2018-12-16T04:09:11.337Z,95.07
2018-12-16T04:11:39.077Z,95.28
2018-12-16T04:14:06.739Z,95.27
2018-12-16T04:16:34.501Z,94.39
2018-12-16T04:19:02.197Z,94.32
2018-12-16T04:21:29.955Z,93.73
2018-12-16T04:23:57.650Z,93.34
2018-12-16T04:26:25.318Z,93.64
2018-12-16T04:28:52.976Z,94.04
2018-12-16T04:31:20.562Z,94.43
2018-12-16T04:33:48.212Z,95.44
2018-12-16T04:36:16.030Z,96.11
2018-12-16T04:38:43.801Z,95.55
2018-12-16T04:41:11.701Z,97.09
2018-12-16T04:43:39.383Z,97.35
2018-12-16T04:46:07.188Z,97.31
2018-12-16T04:48:34.893Z,96.18
2018-12-16T04:51:02.547Z,96.16
2018-12-16T04:53:35.887Z,95.49
2018-12-16T04:55:59.967Z,94.47
2018-12-16T04:58:27.587Z,94.92
2018-12-16T05:00:55.284Z,95.99
2018-12-16T05:03:23.187Z,95.86
2018-12-16T05:05:50.785Z,95.00
2018-12-16T05:08:18.612Z,94.61
2018-12-16T05:10:46.321Z,94.01
2018-12-16T05:13:13.970Z,93.70
2018-12-16T05:15:42.270Z,92.84
2018-12-16T05:18:09.853Z,94.28
2018-12-16T05:20:37.634Z,95.38
2018-12-16T05:23:05.526Z,95.94
2018-12-16T05:25:33.230Z,95.62
2018-12-16T05:28:00.944Z,95.02
2018-12-16T05:30:28.525Z,95.97
2018-12-16T05:32:56.463Z,96.57
2018-12-16T05:35:24.121Z,95.92
2018-12-16T05:37:51.706Z,95.96
2018-12-16T05:40:19.305Z,97.40
2018-12-16T05:42:46.955Z,96.91
2018-12-16T05:45:14.562Z,95.66
2018-12-16T05:47:42.330Z,94.69
2018-12-16T05:50:10.564Z,94.31
2018-12-16T05:52:38.375Z,94.64
2018-12-16T05:55:06.033Z,94.97
2018-12-16T05:57:33.651Z,94.97
2018-12-16T06:00:01.312Z,94.72
2018-12-16T06:02:28.898Z,95.86
2018-12-16T06:04:56.553Z,96.03
2018-12-16T06:07:24.210Z,95.48
2018-12-16T06:09:51.966Z,93.67
2018-12-16T06:12:19.547Z,94.00
2018-12-16T06:14:47.464Z,94.15
2018-12-16T06:17:15.098Z,93.29
2018-12-16T06:19:42.851Z,92.62
2018-12-16T06:22:10.482Z,92.08
2018-12-16T06:24:38.129Z,91.83
2018-12-16T06:27:05.822Z,92.25
2018-12-16T06:29:34.334Z,92.59
2018-12-16T06:32:02.208Z,92.07
2018-12-16T06:34:29.789Z,92.44
2018-12-16T06:36:57.519Z,93.49
2018-12-16T06:39:25.379Z,94.00
2018-12-16T06:41:53.259Z,94.55
2018-12-16T06:44:20.887Z,95.06
2018-12-16T06:46:48.491Z,95.81
2018-12-16T06:49:16.355Z,95.51
2018-12-16T06:51:44.211Z,94.95
2018-12-16T06:54:11.816Z,95.10
2018-12-16T06:56:39.497Z,94.56
2018-12-16T06:59:07.310Z,94.38
2018-12-16T07:01:35.337Z,95.46
2018-12-16T07:04:03.048Z,96.84
2018-12-16T07:06:30.664Z,96.21
2018-12-16T07:08:58.535Z,95.96
2018-12-16T07:11:26.252Z,95.04
2018-12-16T07:13:53.886Z,94.64
2018-12-16T07:16:21.691Z,94.52
2018-12-16T07:18:49.348Z,94.48
2018-12-16T07:21:17.183Z,94.68
2018-12-16T07:23:44.847Z,94.90
2018-12-16T07:26:12.515Z,92.35
2018-12-16T07:28:40.436Z,88.11
2018-12-16T07:31:08.163Z,88.15
2018-12-16T07:33:35.816Z,89.31
2018-12-16T07:36:03.721Z,90.48
2018-12-16T07:38:31.747Z,91.26
2018-12-16T07:41:00.437Z,90.89
2018-12-16T07:43:34.861Z,85.45
2018-12-16T07:46:02.855Z,72.42
2018-12-16T07:48:32.227Z,64.83
2018-12-16T07:51:00.216Z,65.03
2018-12-16T07:53:28.372Z,65.26
2018-12-16T07:55:57.092Z,63.29
2018-12-16T07:58:24.932Z,64.85
2018-12-16T08:00:53.841Z,65.04
2018-12-16T08:03:23.266Z,68.23
2018-12-16T08:05:51.119Z,71.50
2018-12-16T08:08:18.771Z,76.32
2018-12-16T08:10:46.361Z,82.28
2018-12-16T08:13:14.811Z,85.87
2018-12-16T08:15:42.729Z,87.56
2018-12-16T08:18:10.414Z,88.12
2018-12-16T08:20:38.188Z,87.69
2018-12-16T08:23:07.044Z,89.38
2018-12-16T08:25:35.658Z,91.31
2018-12-16T08:28:03.341Z,91.89
2018-12-16T08:30:31.085Z,91.11
2018-12-16T08:32:58.960Z,90.38
2018-12-16T08:35:26.693Z,89.30
2018-12-16T08:37:54.586Z,88.55
2018-12-16T08:40:22.350Z,90.36
2018-12-16T08:42:50.984Z,90.14
2018-12-16T08:45:19.762Z,89.24
2018-12-16T08:47:49.259Z,89.98
2018-12-16T08:50:16.960Z,90.67
2018-12-16T08:52:44.617Z,90.69
2018-12-16T08:55:12.270Z,87.13
2018-12-16T08:57:41.032Z,82.02
2018-12-16T09:00:08.797Z,77.43
2018-12-16T09:02:36.490Z,75.56
2018-12-16T09:05:04.706Z,77.52
2018-12-16T09:07:37.211Z,74.29
2018-12-16T09:10:02.124Z,76.69
2018-12-16T09:12:33.551Z,76.00
2018-12-16T09:15:01.144Z,77.32
2018-12-16T09:17:29.424Z,74.47
2018-12-16T09:19:56.996Z,75.89
2018-12-16T09:22:24.690Z,75.92
2018-12-16T09:24:52.379Z,71.43
2018-12-16T09:27:20.411Z,72.97
2018-12-16T09:29:48.003Z,70.89
2018-12-16T09:32:15.675Z,71.85
2018-12-16T09:34:43.591Z,70.01
2018-12-16T09:37:11.261Z,66.57
2018-12-16T09:39:39.748Z,66.55
2018-12-16T09:42:07.432Z,66.60
2018-12-16T09:44:37.493Z,66.28
2018-12-16T09:47:05.174Z,68.20
2018-12-16T09:49:33.474Z,68.67
2018-12-16T09:52:01.081Z,72.07
2018-12-16T09:54:29.624Z,71.89
2018-12-16T09:56:57.285Z,74.87
2018-12-16T09:59:25.570Z,71.35
2018-12-16T10:01:53.140Z,69.67
2018-12-16T10:04:21.785Z,66.61
2018-12-16T10:06:49.402Z,69.38
2018-12-16T10:09:17.074Z,73.61
2018-12-16T10:11:44.669Z,75.05
2018-12-16T10:14:12.736Z,74.88
2018-12-16T10:16:40.799Z,73.06
2018-12-16T10:19:08.412Z,72.03
2018-12-16T10:21:36.237Z,73.51
2018-12-16T10:24:04.658Z,74.19
2018-12-16T10:26:33.714Z,73.37
2018-12-16T10:29:01.612Z,76.19
2018-12-16T10:31:29.826Z,77.50
2018-12-16T10:33:57.543Z,77.39
2018-12-16T10:36:25.187Z,76.53
2018-12-16T10:38:52.889Z,75.58
2018-12-16T10:41:20.579Z,76.69
2018-12-16T10:43:49.212Z,76.91
2018-12-16T10:46:16.868Z,77.06
2018-12-16T10:48:45.481Z,78.32
2018-12-16T10:51:13.122Z,79.63
2018-12-16T10:53:40.760Z,77.98
2018-12-16T10:56:08.720Z,74.23
2018-12-16T10:58:36.333Z,75.61
2018-12-16T11:01:09.511Z,76.49
2018-12-16T11:03:37.171Z,78.46
2018-12-16T11:06:05.010Z,76.04
2018-12-16T11:08:32.940Z,75.75
2018-12-16T11:11:00.754Z,76.36
2018-12-16T11:13:28.473Z,77.45
2018-12-16T11:15:56.068Z,75.53
2018-12-16T11:18:24.577Z,75.11
2018-12-16T11:20:52.354Z,75.81
2018-12-16T11:23:22.894Z,76.10
2018-12-16T11:25:51.706Z,78.26
2018-12-16T11:28:21.827Z,78.93
2018-12-16T11:30:50.192Z,79.82
2018-12-16T11:33:18.115Z,80.95
2018-12-16T11:35:45.745Z,79.06
2018-12-16T11:38:14.064Z,77.82
2018-12-16T11:40:42.008Z,77.39
2018-12-16T11:43:09.672Z,79.47
2018-12-16T11:45:37.365Z,78.25
2018-12-16T11:48:05.242Z,81.13
2018-12-16T11:50:33.211Z,80.14
2018-12-16T11:53:00.973Z,78.39
2018-12-16T11:55:28.708Z,77.93
2018-12-16T11:57:56.411Z,77.46
2018-12-16T12:00:25.615Z,78.12
2018-12-16T12:02:53.496Z,77.92
2018-12-16T12:05:21.167Z,76.20
2018-12-16T12:07:48.931Z,77.15
2018-12-16T12:10:19.429Z,76.69
2018-12-16T12:12:47.059Z,78.36
2018-12-16T12:15:14.877Z,79.01
2018-12-16T12:17:42.773Z,77.94
2018-12-16T12:20:12.769Z,78.25
2018-12-16T12:22:40.563Z,78.13
2018-12-16T12:25:08.365Z,80.13
2018-12-16T12:27:36.227Z,80.05
2018-12-16T12:30:06.231Z,81.23
2018-12-16T12:32:33.969Z,81.21
2018-12-16T12:35:02.481Z,81.97
2018-12-16T12:37:30.279Z,81.86
2018-12-16T12:39:58.009Z,81.29
2018-12-16T12:42:25.594Z,82.31
2018-12-16T12:44:53.225Z,83.79
2018-12-16T12:47:20.883Z,83.48
2018-12-16T12:49:48.481Z,81.70
2018-12-16T12:52:16.954Z,82.87
2018-12-16T12:54:45.750Z,83.98
2018-12-16T12:57:13.480Z,83.32
2018-12-16T12:59:41.154Z,85.06
2018-12-16T13:02:09.862Z,84.57
2018-12-16T13:04:37.534Z,84.04
2018-12-16T13:07:06.520Z,84.27
2018-12-16T13:09:34.445Z,82.99
2018-12-16T13:12:03.779Z,83.29
2018-12-16T13:14:31.398Z,84.10
2018-12-16T13:17:00.147Z,85.06
2018-12-16T13:19:29.674Z,86.78
2018-12-16T13:21:58.537Z,87.00
2018-12-16T13:24:26.222Z,86.61
2018-12-16T13:26:54.143Z,86.23
2018-12-16T13:29:23.315Z,86.51
2018-12-16T13:31:50.957Z,87.44
2018-12-16T13:34:19.360Z,86.94
2018-12-16T13:36:47.863Z,86.77
2018-12-16T13:39:15.743Z,87.68
2018-12-16T13:41:43.481Z,88.89
2018-12-16T13:44:12.127Z,89.42
2018-12-16T13:46:41.744Z,89.12
2018-12-16T13:49:09.980Z,90.39
2018-12-16T13:51:38.982Z,90.78
2018-12-16T13:54:06.622Z,92.40
2018-12-16T13:56:34.506Z,92.05
2018-12-16T13:59:04.104Z,92.74
2018-12-16T14:01:31.848Z,94.12
2018-12-16T14:03:59.517Z,93.98
2018-12-16T14:06:27.123Z,94.60
2018-12-16T14:08:54.735Z,93.76
2018-12-16T14:11:22.409Z,94.94
2018-12-16T14:13:50.039Z,95.43
2018-12-16T14:16:17.815Z,94.96
2018-12-16T14:18:45.514Z,94.07
2018-12-16T14:21:14.690Z,95.20
2018-12-16T14:23:42.259Z,95.72
2018-12-16T14:26:11.069Z,96.00
2018-12-16T14:28:38.707Z,96.56
2018-12-16T14:31:06.789Z,97.40
2018-12-16T14:33:34.619Z,99.78
2018-12-16T14:36:04.287Z,96.65
2018-12-16T14:38:32.331Z,94.95
2018-12-16T14:40:59.926Z,94.43
2018-12-16T14:43:31.226Z,93.84
2018-12-16T14:45:58.827Z,94.46
2018-12-16T14:48:26.688Z,95.09
2018-12-16T14:50:54.440Z,95.45
2018-12-16T14:53:22.226Z,96.44
2018-12-16T14:55:55.124Z,96.56
2018-12-16T14:58:19.572Z,98.93
2018-12-16T15:00:48.436Z,99.84
2018-12-16T15:03:16.120Z,98.70
2018-12-16T15:05:43.815Z,97.54
2018-12-16T15:08:12.234Z,96.95
2018-12-16T15:10:39.909Z,97.17
2018-12-16T15:13:07.581Z,97.18
2018-12-16T15:15:35.225Z,96.58
2018-12-16T15:18:02.876Z,96.83
2018-12-16T15:20:30.614Z,96.96
2018-12-16T15:22:58.421Z,98.27
2018-12-16T15:25:26.062Z,97.92
2018-12-16T15:27:54.009Z,98.26
2018-12-16T15:30:21.713Z,98.58
2018-12-16T15:32:49.319Z,98.46
2018-12-16T15:35:17.023Z,99.88
2018-12-16T15:37:44.775Z,100.00
2018-12-16T15:40:12.512Z,99.50
2018-12-16T15:42:41.273Z,99.86
2018-12-16T15:45:09.140Z,98.75
2018-12-16T15:47:36.861Z,98.58
2018-12-16T15:50:06.409Z,96.53
2018-12-16T15:52:34.489Z,96.10
2018-12-16T15:55:02.243Z,95.88
2018-12-16T15:57:30.142Z,96.30
2018-12-16T15:59:57.964Z,96.91
2018-12-16T16:02:25.712Z,98.18
2018-12-16T16:04:53.361Z,99.00
2018-12-16T16:07:21.830Z,98.72
2018-12-16T16:09:50.009Z,99.00
2018-12-16T16:12:17.789Z,99.82
2018-12-16T16:14:45.555Z,100.00
2018-12-16T16:17:13.286Z,100.00
2018-12-16T16:19:42.130Z,100.00
2018-12-16T16:22:09.975Z,99.26
2018-12-16T16:24:37.757Z,98.20
2018-12-16T16:27:05.601Z,98.99
2018-12-16T16:29:33.252Z,99.64
2018-12-16T16:32:00.992Z,100.00
2018-12-16T16:34:28.778Z,100.00
2018-12-16T16:36:56.557Z,100.00
2018-12-16T16:39:24.328Z,99.87
2018-12-16T16:41:52.135Z,100.00
2018-12-16T16:44:19.788Z,100.00
2018-12-16T16:46:47.977Z,100.00
2018-12-16T16:49:16.928Z,100.00
2018-12-16T16:51:48.548Z,100.00
2018-12-16T16:54:16.361Z,100.00
2018-12-16T16:56:46.203Z,99.65
2018-12-16T16:59:14.273Z,99.16
2018-12-16T17:01:42.162Z,98.73
2018-12-16T17:04:11.551Z,99.28
2018-12-16T17:06:40.029Z,100.00
2018-12-16T17:09:13.588Z,100.00
2018-12-16T17:11:42.532Z,100.00
2018-12-16T17:14:10.382Z,100.00
2018-12-16T17:16:40.036Z,100.00
2018-12-16T17:19:08.189Z,100.00
2018-12-16T17:21:36.560Z,100.00
2018-12-16T17:24:04.232Z,100.00
2018-12-16T17:26:35.860Z,100.00
2018-12-16T17:29:04.648Z,100.00
2018-12-16T17:31:32.490Z,100.00
2018-12-16T17:34:00.206Z,100.00
2018-12-16T17:36:27.866Z,100.00
2018-12-16T17:38:55.543Z,100.00
2018-12-16T17:41:23.473Z,100.00
2018-12-16T17:43:51.244Z,100.00
2018-12-16T17:46:19.186Z,100.00
2018-12-16T17:48:48.626Z,100.00
2018-12-16T17:51:16.765Z,100.00
2018-12-16T17:53:44.483Z,100.00
2018-12-16T17:56:13.044Z,100.00
2018-12-16T17:58:41.963Z,100.00
2018-12-16T18:01:09.727Z,100.00
2018-12-16T18:03:41.708Z,100.00
2018-12-16T18:06:10.386Z,100.00
2018-12-16T18:08:38.216Z,100.00
2018-12-16T18:11:05.900Z,100.00
2018-12-16T18:13:33.702Z,100.00
2018-12-16T18:16:02.603Z,100.00
2018-12-16T18:18:31.505Z,100.00
2018-12-16T18:21:00.282Z,100.00
2018-12-16T18:23:32.883Z,100.00
2018-12-16T18:26:00.676Z,100.00
2018-12-16T18:28:28.444Z,100.00
2018-12-16T18:30:56.168Z,100.00
2018-12-16T18:33:23.998Z,100.00
2018-12-16T18:35:51.906Z,100.00
2018-12-16T18:38:19.562Z,100.00
2018-12-16T18:40:47.293Z,100.00
2018-12-16T18:43:14.952Z,100.00
2018-12-16T18:45:42.729Z,100.00
2018-12-16T18:48:10.468Z,100.00
2018-12-16T18:50:38.757Z,100.00
2018-12-16T18:53:06.477Z,100.00
2018-12-16T18:55:34.323Z,100.00
2018-12-16T18:58:03.858Z,100.00
2018-12-16T19:00:31.549Z,100.00
2018-12-16T19:03:00.285Z,100.00
2018-12-16T19:05:28.058Z,100.00
2018-12-16T19:07:55.829Z,100.00
2018-12-16T19:10:23.664Z,100.00
2018-12-16T19:12:51.274Z,100.00
2018-12-16T19:15:20.203Z,100.00
2018-12-16T19:17:49.357Z,100.00
2018-12-16T19:20:17.190Z,100.00
2018-12-16T19:22:45.235Z,100.00
2018-12-16T19:25:13.589Z,100.00
2018-12-16T19:27:41.606Z,100.00
2018-12-16T19:30:09.382Z,100.00
2018-12-16T19:32:37.104Z,100.00
2018-12-16T19:35:06.377Z,100.00
2018-12-16T19:37:34.139Z,100.00
2018-12-16T19:40:01.970Z,100.00
2018-12-16T19:42:29.705Z,100.00
2018-12-16T19:44:57.584Z,100.00
2018-12-16T19:47:25.518Z,100.00
2018-12-16T19:49:53.328Z,100.00
2018-12-16T19:52:21.441Z,100.00
2018-12-16T19:54:49.686Z,100.00
2018-12-16T19:57:17.345Z,100.00
2018-12-16T19:59:45.249Z,100.00
2018-12-16T20:02:14.838Z,100.00
2018-12-16T20:04:45.868Z,100.00
2018-12-16T20:07:13.571Z,100.00
2018-12-16T20:09:41.254Z,100.00
2018-12-16T20:12:09.041Z,100.00
2018-12-16T20:14:37.219Z,100.00
2018-12-16T20:17:05.156Z,100.00
2018-12-16T20:19:34.702Z,100.00
2018-12-16T20:22:02.327Z,100.00
2018-12-16T20:24:30.121Z,100.00
2018-12-16T20:26:57.975Z,100.00
2018-12-16T20:29:25.639Z,100.00
2018-12-16T20:31:53.424Z,100.00
2018-12-16T20:34:21.967Z,100.00
2018-12-16T20:36:49.712Z,100.00
2018-12-16T20:39:17.421Z,100.00
2018-12-16T20:41:45.153Z,100.00
2018-12-16T20:44:12.919Z,100.00
2018-12-16T20:46:40.559Z,100.00
2018-12-16T20:49:08.459Z,100.00
2018-12-16T20:51:36.406Z,100.00
2018-12-16T20:54:04.219Z,100.00
2018-12-16T20:56:31.906Z,100.00
2018-12-16T20:58:59.639Z,100.00
2018-12-16T21:01:27.344Z,100.00
2018-12-16T21:03:55.712Z,100.00
2018-12-16T21:06:23.621Z,100.00
2018-12-16T21:08:52.728Z,100.00
2018-12-16T21:14:31.870Z,100.00
2018-12-16T21:17:05.157Z,100.00
2018-12-16T21:19:33.142Z,100.00
2018-12-16T21:22:00.861Z,100.00
2018-12-16T21:24:28.969Z,100.00
2018-12-16T21:26:56.667Z,100.00
2018-12-16T21:29:24.378Z,100.00
2018-12-16T21:31:52.133Z,100.00
2018-12-16T21:34:19.897Z,100.00
2018-12-16T21:36:48.839Z,100.00
2018-12-16T21:39:16.595Z,100.00
2018-12-16T21:41:44.270Z,100.00
2018-12-16T21:44:11.932Z,100.00
2018-12-16T21:46:39.649Z,100.00
2018-12-16T21:49:07.329Z,100.00
2018-12-16T21:51:35.105Z,100.00
2018-12-16T21:54:02.798Z,100.00
2018-12-16T21:56:31.382Z,100.00
2018-12-16T21:59:00.472Z,100.00
2018-12-16T22:01:28.290Z,100.00
2018-12-16T22:03:55.978Z,100.00
2018-12-16T22:06:23.709Z,100.00
2018-12-16T22:08:51.442Z,100.00
2018-12-16T22:11:19.063Z,100.00
2018-12-16T22:13:47.330Z,100.00
2018-12-16T22:16:15.040Z,100.00
2018-12-16T22:18:42.730Z,100.00
2018-12-16T22:21:10.452Z,100.00
2018-12-16T22:23:38.080Z,100.00
2018-12-16T22:26:05.858Z,100.00
2018-12-16T22:28:33.510Z,100.00
2018-12-16T22:31:02.009Z,100.00
2018-12-16T22:33:29.813Z,100.00
2018-12-16T22:35:57.472Z,100.00
2018-12-16T22:38:25.099Z,100.00
2018-12-16T22:40:52.773Z,100.00
2018-12-16T22:43:20.421Z,100.00
2018-12-16T22:45:49.102Z,100.00
2018-12-16T22:48:16.882Z,100.00
2018-12-16T22:50:44.600Z,100.00
2018-12-16T22:53:12.305Z,100.00
2018-12-16T22:55:39.997Z,100.00
2018-12-16T22:58:08.311Z,100.00
2018-12-16T23:00:41.415Z,100.00
2018-12-16T23:03:10.057Z,100.00
2018-12-16T23:05:38.292Z,100.00
2018-12-16T23:08:06.008Z,100.00
2018-12-16T23:10:33.674Z,100.00
2018-12-16T23:13:01.376Z,100.00
2018-12-16T23:15:28.990Z,100.00
2018-12-16T23:17:56.650Z,98.97
2018-12-16T23:20:26.386Z,99.44
2018-12-16T23:22:54.105Z,99.86
2018-12-16T23:25:22.325Z,100.00
2018-12-16T23:27:54.197Z,100.00
2018-12-16T23:30:20.931Z,100.00
2018-12-16T23:32:48.604Z,100.00
2018-12-16T23:35:16.282Z,100.00
2018-12-16T23:37:44.895Z,100.00
2018-12-16T23:42:58.336Z,100.00
2018-12-16T23:45:25.927Z,100.00
2018-12-16T23:47:53.646Z,100.00
2018-12-16T23:50:22.449Z,100.00
2018-12-16T23:52:50.901Z,100.00
2018-12-16T23:55:18.501Z,100.00
2018-12-16T23:57:48.888Z,100.00
